createdAt,value
2018-09-25T00:00:52.741Z,93.81
2018-09-25T00:03:26.884Z,93.37
2018-09-25T00:06:01.098Z,93.50
2018-09-25T00:08:38.422Z,93.36
2018-09-25T00:11:12.415Z,93.32
2018-09-25T00:13:46.475Z,93.37
2018-09-25T00:16:20.523Z,93.65
2018-09-25T00:18:54.678Z,93.21
2018-09-25T00:21:29.619Z,93.21
2018-09-25T00:24:03.773Z,93.80
2018-09-25T00:26:37.787Z,94.10
2018-09-25T00:29:11.723Z,94.01
2018-09-25T00:31:45.741Z,94.50
2018-09-25T00:34:19.796Z,94.71
2018-09-25T00:36:53.823Z,93.95
2018-09-25T00:39:27.966Z,94.57
2018-09-25T00:42:02.123Z,94.52
2018-09-25T00:44:36.693Z,93.87
2018-09-25T00:47:10.775Z,94.25
2018-09-25T00:49:44.829Z,94.57
2018-09-25T00:52:18.677Z,94.32
2018-09-25T00:54:52.823Z,94.87
2018-09-25T00:57:26.987Z,94.36
2018-09-25T01:00:01.103Z,94.55
2018-09-25T01:02:35.048Z,93.76
2018-09-25T01:05:08.919Z,94.09
2018-09-25T01:07:42.943Z,94.53
2018-09-25T01:10:16.919Z,94.72
2018-09-25T01:12:52.313Z,93.52
2018-09-25T01:15:26.277Z,93.82
2018-09-25T01:18:00.533Z,94.22
2018-09-25T01:20:34.496Z,93.37
2018-09-25T01:23:08.461Z,93.64
2018-09-25T01:25:42.452Z,93.78
2018-09-25T01:28:16.664Z,94.23
2018-09-25T01:30:50.855Z,92.92
2018-09-25T01:33:24.767Z,93.77
2018-09-25T01:35:58.627Z,93.99
2018-09-25T01:38:32.584Z,93.58
2018-09-25T01:41:06.537Z,93.86
2018-09-25T01:43:40.441Z,93.86
2018-09-25T01:46:14.380Z,93.11
2018-09-25T01:48:48.326Z,93.28
2018-09-25T01:51:22.243Z,93.22
2018-09-25T01:53:56.420Z,93.50
2018-09-25T01:56:30.523Z,93.25
2018-09-25T01:59:04.657Z,94.39
2018-09-25T02:01:38.597Z,94.00
2018-09-25T02:04:12.552Z,93.42
2018-09-25T02:06:46.648Z,94.02
2018-09-25T02:09:20.822Z,93.76
2018-09-25T02:11:54.998Z,93.74
2018-09-25T02:14:29.085Z,94.05
2018-09-25T02:17:03.109Z,93.50
2018-09-25T02:19:37.143Z,94.26
2018-09-25T02:22:11.269Z,93.99
2018-09-25T02:24:45.391Z,93.86
2018-09-25T02:27:19.565Z,94.12
2018-09-25T02:29:53.612Z,94.18
2018-09-25T02:32:27.604Z,93.54
2018-09-25T02:35:01.622Z,93.90
2018-09-25T02:37:35.683Z,94.27
2018-09-25T02:40:09.832Z,93.65
2018-09-25T02:42:43.672Z,93.67
2018-09-25T02:45:17.670Z,93.68
2018-09-25T02:47:51.788Z,94.26
2018-09-25T02:50:25.932Z,94.35
2018-09-25T02:52:59.911Z,93.82
2018-09-25T02:55:34.193Z,94.00
2018-09-25T02:58:08.232Z,94.52
2018-09-25T03:00:42.274Z,94.32
2018-09-25T03:03:16.316Z,94.42
2018-09-25T03:05:50.451Z,93.94
2018-09-25T03:08:24.301Z,94.09
2018-09-25T03:10:58.734Z,94.88
2018-09-25T03:13:32.622Z,94.33
2018-09-25T03:16:06.569Z,94.69
2018-09-25T03:18:41.766Z,94.16
2018-09-25T03:21:15.917Z,94.79
2018-09-25T03:23:50.067Z,94.10
2018-09-25T03:26:23.969Z,94.26
2018-09-25T03:28:57.953Z,94.89
2018-09-25T03:31:31.933Z,94.39
2018-09-25T03:34:06.085Z,94.88
2018-09-25T03:36:40.020Z,94.05
2018-09-25T03:39:14.473Z,94.59
2018-09-25T03:41:48.639Z,94.08
2018-09-25T03:44:22.659Z,94.09
2018-09-25T03:46:56.523Z,94.61
2018-09-25T03:49:30.514Z,94.27
2018-09-25T03:52:04.535Z,93.91
2018-09-25T03:54:38.628Z,94.11
2018-09-25T03:57:12.688Z,94.67
2018-09-25T03:59:46.741Z,94.32
2018-09-25T04:02:20.718Z,94.13
2018-09-25T04:04:54.852Z,94.36
2018-09-25T04:07:28.828Z,94.22
2018-09-25T04:10:02.788Z,94.79
2018-09-25T04:12:37.611Z,94.75
2018-09-25T04:15:11.761Z,94.77
2018-09-25T04:17:45.623Z,94.63
2018-09-25T04:20:19.664Z,94.89
2018-09-25T04:22:53.833Z,94.90
2018-09-25T04:25:27.772Z,94.46
2018-09-25T04:28:01.669Z,94.58
2018-09-25T04:30:35.549Z,95.11
2018-09-25T04:33:09.396Z,94.57
2018-09-25T04:35:43.504Z,95.02
2018-09-25T04:38:17.340Z,94.59
2018-09-25T04:40:51.306Z,95.00
2018-09-25T04:43:25.240Z,94.34
2018-09-25T04:45:59.262Z,94.38
2018-09-25T04:48:33.329Z,94.68
2018-09-25T04:51:07.155Z,94.85
2018-09-25T04:53:41.146Z,95.18
2018-09-25T04:56:15.243Z,94.77
2018-09-25T04:58:49.447Z,95.12
2018-09-25T05:01:23.399Z,95.26
2018-09-25T05:03:57.587Z,94.59
2018-09-25T05:06:31.664Z,95.09
2018-09-25T05:09:05.857Z,94.86
2018-09-25T05:11:39.697Z,95.13
2018-09-25T05:14:13.738Z,94.81
2018-09-25T05:16:47.743Z,94.69
2018-09-25T05:19:21.693Z,95.69
2018-09-25T05:21:55.793Z,95.07
2018-09-25T05:24:29.810Z,94.79
2018-09-25T05:27:03.702Z,95.38
2018-09-25T05:29:37.692Z,95.29
2018-09-25T05:32:11.732Z,94.54
2018-09-25T05:34:45.712Z,95.18
2018-09-25T05:37:19.568Z,95.01
2018-09-25T05:39:53.661Z,95.04
2018-09-25T05:42:27.561Z,94.95
2018-09-25T05:45:01.531Z,95.24
2018-09-25T05:47:35.527Z,95.04
2018-09-25T05:50:09.705Z,95.43
2018-09-25T05:52:43.777Z,95.67
2018-09-25T05:55:17.756Z,95.61
2018-09-25T05:57:51.831Z,95.48
2018-09-25T06:00:25.944Z,95.79
2018-09-25T06:02:59.905Z,94.83
2018-09-25T06:05:33.844Z,95.17
2018-09-25T06:08:07.804Z,95.00
2018-09-25T06:10:41.844Z,95.39
2018-09-25T06:13:15.878Z,95.12
2018-09-25T06:15:50.054Z,95.61
2018-09-25T06:18:24.100Z,95.66
2018-09-25T06:20:58.248Z,96.15
2018-09-25T06:23:32.249Z,95.53
2018-09-25T06:26:06.436Z,95.86
2018-09-25T06:28:40.556Z,95.58
2018-09-25T06:31:14.853Z,95.91
2018-09-25T06:33:48.835Z,95.33
2018-09-25T06:36:22.857Z,95.54
2018-09-25T06:38:56.839Z,95.51
2018-09-25T06:41:31.068Z,96.41
2018-09-25T06:44:05.151Z,96.02
2018-09-25T06:46:39.096Z,95.67
2018-09-25T06:49:13.045Z,95.78
2018-09-25T06:51:47.016Z,96.33
2018-09-25T06:54:21.063Z,95.90
2018-09-25T06:56:55.240Z,95.50
2018-09-25T06:59:29.176Z,95.42
2018-09-25T07:02:03.201Z,96.18
2018-09-25T07:04:37.212Z,95.19
2018-09-25T07:07:11.418Z,96.08
2018-09-25T07:09:45.358Z,95.61
2018-09-25T07:12:19.398Z,95.44
2018-09-25T07:14:53.369Z,95.66
2018-09-25T07:17:27.407Z,95.78
2018-09-25T07:20:01.392Z,95.71
2018-09-25T07:22:35.394Z,96.07
2018-09-25T07:25:09.467Z,95.45
2018-09-25T07:27:43.599Z,95.33
2018-09-25T07:30:17.533Z,96.28
2018-09-25T07:32:51.468Z,95.91
2018-09-25T07:35:25.545Z,95.62
2018-09-25T07:37:59.507Z,95.34
2018-09-25T07:40:33.408Z,95.62
2018-09-25T07:43:07.413Z,95.49
2018-09-25T07:45:41.426Z,95.92
2018-09-25T07:48:15.554Z,95.80
2018-09-25T07:50:49.724Z,95.34
2018-09-25T07:53:23.832Z,95.04
2018-09-25T07:55:57.856Z,95.14
2018-09-25T07:58:32.044Z,95.48
2018-09-25T08:01:05.927Z,94.95
2018-09-25T08:03:40.104Z,95.35
2018-09-25T08:06:14.081Z,94.88
2018-09-25T08:08:48.050Z,94.88
2018-09-25T08:11:23.153Z,94.28
2018-09-25T08:13:57.085Z,94.35
2018-09-25T08:16:30.983Z,94.79
2018-09-25T08:19:05.057Z,94.78
2018-09-25T08:21:39.277Z,94.98
2018-09-25T08:24:13.245Z,94.89
2018-09-25T08:26:47.293Z,94.90
2018-09-25T08:29:21.395Z,94.60
2018-09-25T08:31:56.512Z,94.43
2018-09-25T08:34:30.676Z,94.71
2018-09-25T08:37:04.561Z,93.93
2018-09-25T08:39:38.564Z,94.03
2018-09-25T08:42:12.639Z,93.71
2018-09-25T08:44:46.807Z,93.87
2018-09-25T08:47:20.760Z,93.81
2018-09-25T08:49:54.899Z,92.00
2018-09-25T08:52:28.749Z,92.86
2018-09-25T08:55:02.711Z,91.27
2018-09-25T08:57:36.661Z,90.99
2018-09-25T09:00:11.881Z,91.00
2018-09-25T09:02:45.937Z,90.80
2018-09-25T09:05:19.962Z,90.57
2018-09-25T09:07:53.807Z,90.15
2018-09-25T09:10:29.777Z,90.24
2018-09-25T09:13:03.742Z,90.60
2018-09-25T09:15:37.717Z,89.36
2018-09-25T09:18:11.821Z,89.78
2018-09-25T09:20:49.825Z,89.43
2018-09-25T09:23:23.829Z,88.20
2018-09-25T09:25:57.905Z,87.17
2018-09-25T09:28:32.103Z,87.32
2018-09-25T09:31:06.223Z,86.60
2018-09-25T09:33:40.361Z,86.74
2018-09-25T09:36:14.473Z,84.42
2018-09-25T09:38:48.613Z,82.26
2018-09-25T09:41:24.763Z,81.66
2018-09-25T09:43:58.721Z,79.76
2018-09-25T09:46:33.029Z,75.30
2018-09-25T09:49:06.984Z,73.91
2018-09-25T09:51:43.099Z,76.12
2018-09-25T09:54:17.336Z,75.42
2018-09-25T09:56:51.234Z,73.37
2018-09-25T09:59:25.452Z,74.16
2018-09-25T10:02:00.520Z,71.13
2018-09-25T10:04:34.668Z,70.38
2018-09-25T10:07:08.810Z,71.87
2018-09-25T10:09:42.895Z,68.49
2018-09-25T10:12:18.975Z,68.63
2018-09-25T10:14:52.921Z,69.61
2018-09-25T10:17:26.986Z,64.46
2018-09-25T10:20:00.964Z,63.39
2018-09-25T10:22:34.977Z,60.78
2018-09-25T10:25:08.933Z,62.29
2018-09-25T10:27:42.912Z,62.19
2018-09-25T10:30:17.133Z,60.30
2018-09-25T10:32:51.134Z,59.03
2018-09-25T10:35:25.288Z,59.51
2018-09-25T10:37:59.196Z,57.79
2018-09-25T10:40:33.141Z,54.48
2018-09-25T10:43:07.156Z,54.47
2018-09-25T10:45:41.160Z,55.12
2018-09-25T10:48:15.021Z,53.42
2018-09-25T10:50:49.159Z,53.74
2018-09-25T10:53:23.133Z,53.30
2018-09-25T10:55:57.318Z,53.44
2018-09-25T10:58:31.205Z,52.94
2018-09-25T11:01:05.403Z,53.93
2018-09-25T11:03:39.362Z,53.66
2018-09-25T11:06:13.344Z,52.28
2018-09-25T11:08:47.149Z,53.72
2018-09-25T11:11:21.193Z,53.43
2018-09-25T11:13:56.409Z,52.84
2018-09-25T11:16:30.524Z,54.12
2018-09-25T11:19:04.559Z,51.60
2018-09-25T11:21:38.570Z,50.16
2018-09-25T11:24:12.576Z,50.91
2018-09-25T11:26:46.640Z,48.70
2018-09-25T11:29:20.693Z,47.22
2018-09-25T11:31:54.945Z,49.39
2018-09-25T11:34:28.964Z,49.06
2018-09-25T11:37:02.976Z,48.47
2018-09-25T11:39:36.984Z,48.61
2018-09-25T11:42:12.090Z,49.40
2018-09-25T11:44:46.069Z,49.56
2018-09-25T11:47:20.004Z,49.90
2018-09-25T11:49:54.043Z,49.96
2018-09-25T11:52:28.112Z,48.75
2018-09-25T11:55:02.388Z,46.37
2018-09-25T11:57:36.613Z,46.10
2018-09-25T12:00:10.769Z,47.26
2018-09-25T12:02:44.752Z,44.77
2018-09-25T12:05:18.656Z,45.51
2018-09-25T12:07:52.664Z,45.66
2018-09-25T12:10:26.791Z,43.20
2018-09-25T12:13:00.776Z,44.52
2018-09-25T12:15:34.803Z,45.10
2018-09-25T12:18:08.824Z,44.43
2018-09-25T12:20:42.825Z,44.24
2018-09-25T12:23:17.150Z,43.88
2018-09-25T12:25:51.051Z,40.40
2018-09-25T12:28:25.049Z,42.54
2018-09-25T12:30:59.099Z,41.94
2018-09-25T12:33:33.117Z,43.50
2018-09-25T12:36:07.073Z,44.53
2018-09-25T12:38:41.083Z,44.06
2018-09-25T12:41:15.116Z,44.99
2018-09-25T12:43:49.136Z,45.74
2018-09-25T12:46:23.217Z,45.80
2018-09-25T12:48:57.394Z,46.70
2018-09-25T12:51:31.385Z,46.81
2018-09-25T12:54:05.338Z,47.49
2018-09-25T12:56:39.507Z,47.48
2018-09-25T12:59:13.648Z,47.20
2018-09-25T13:01:48.414Z,48.36
2018-09-25T13:04:22.267Z,47.40
2018-09-25T13:06:56.165Z,47.66
2018-09-25T13:09:30.306Z,47.41
2018-09-25T13:12:04.443Z,47.47
2018-09-25T13:14:38.447Z,47.06
2018-09-25T13:17:12.381Z,46.50
2018-09-25T13:19:46.311Z,46.62
2018-09-25T13:22:20.501Z,47.48
2018-09-25T13:24:54.460Z,46.77
2018-09-25T13:27:28.543Z,46.46
2018-09-25T13:30:02.556Z,47.04
2018-09-25T13:32:36.508Z,46.98
2018-09-25T13:35:10.473Z,46.80
2018-09-25T13:37:44.439Z,46.69
2018-09-25T13:40:18.419Z,46.62
2018-09-25T13:42:52.519Z,46.89
2018-09-25T13:45:26.371Z,45.50
2018-09-25T13:48:00.448Z,43.99
2018-09-25T13:50:34.412Z,43.57
2018-09-25T13:53:09.299Z,41.77
2018-09-25T13:55:43.288Z,40.35
2018-09-25T13:58:17.299Z,40.70
2018-09-25T14:00:51.237Z,41.32
2018-09-25T14:03:25.507Z,41.51
2018-09-25T14:05:59.476Z,43.15
2018-09-25T14:08:33.539Z,40.45
2018-09-25T14:11:07.429Z,40.16
2018-09-25T14:13:41.327Z,38.00
2018-09-25T14:16:15.338Z,36.09
2018-09-25T14:18:49.467Z,36.24
2018-09-25T14:21:23.534Z,35.23
2018-09-25T14:23:57.467Z,35.83
2018-09-25T14:26:31.425Z,36.38
2018-09-25T14:29:05.354Z,36.43
2018-09-25T14:31:39.303Z,38.51
2018-09-25T14:34:13.176Z,39.12
2018-09-25T14:36:47.229Z,39.32
2018-09-25T14:39:21.344Z,37.22
2018-09-25T14:41:55.380Z,38.84
2018-09-25T14:44:29.339Z,39.97
2018-09-25T14:47:03.179Z,40.36
2018-09-25T14:49:37.233Z,40.71
2018-09-25T14:52:11.265Z,40.35
2018-09-25T14:54:45.345Z,41.24
2018-09-25T14:57:19.439Z,40.57
2018-09-25T14:59:53.354Z,40.46
2018-09-25T15:02:27.242Z,40.60
2018-09-25T15:05:01.136Z,41.60
2018-09-25T15:07:34.960Z,40.11
2018-09-25T15:10:08.961Z,33.63
2018-09-25T15:12:43.056Z,27.65
2018-09-25T15:15:17.045Z,23.81
2018-09-25T15:17:51.183Z,20.23
2018-09-25T15:20:25.331Z,19.53
2018-09-25T15:22:59.356Z,18.49
2018-09-25T15:25:33.292Z,18.25
2018-09-25T15:28:07.280Z,18.74
2018-09-25T15:30:41.351Z,21.14
2018-09-25T15:33:15.391Z,23.16
2018-09-25T15:35:49.640Z,22.43
2018-09-25T15:38:23.571Z,23.37
2018-09-25T15:40:57.637Z,24.69
2018-09-25T15:43:31.671Z,25.84
2018-09-25T15:46:05.632Z,25.24
2018-09-25T15:48:39.733Z,25.93
2018-09-25T15:51:13.868Z,23.16
2018-09-25T15:53:47.972Z,25.41
2018-09-25T15:56:21.846Z,27.62
2018-09-25T15:58:56.008Z,27.94
2018-09-25T16:01:29.984Z,27.60
2018-09-25T16:04:03.879Z,27.42
2018-09-25T16:06:38.025Z,28.58
2018-09-25T16:09:14.285Z,31.48
2018-09-25T16:11:48.745Z,35.18
2018-09-25T16:14:29.776Z,37.65
2018-09-25T16:17:03.695Z,39.42
2018-09-25T16:19:37.795Z,40.55
2018-09-25T16:22:11.823Z,41.65
2018-09-25T16:24:45.905Z,42.77
2018-09-25T16:27:19.893Z,44.34
2018-09-25T16:29:53.777Z,44.84
2018-09-25T16:32:27.828Z,45.44
2018-09-25T16:35:01.646Z,46.35
2018-09-25T16:37:35.895Z,47.12
2018-09-25T16:40:10.059Z,47.37
2018-09-25T16:42:44.128Z,48.47
2018-09-25T16:45:18.105Z,48.67
2018-09-25T16:47:52.077Z,49.08
2018-09-25T16:50:26.129Z,49.29
2018-09-25T16:53:00.090Z,49.86
2018-09-25T16:55:34.066Z,50.77
2018-09-25T16:58:08.047Z,51.50
2018-09-25T17:00:42.046Z,52.41
2018-09-25T17:03:16.238Z,52.99
2018-09-25T17:05:50.253Z,54.13
2018-09-25T17:08:24.345Z,54.77
2018-09-25T17:10:58.288Z,56.01
2018-09-25T17:13:32.219Z,56.49
2018-09-25T17:16:06.213Z,58.06
2018-09-25T17:18:40.403Z,58.79
2018-09-25T17:21:14.377Z,59.70
2018-09-25T17:23:48.542Z,60.55
2018-09-25T17:26:22.593Z,60.75
2018-09-25T17:28:56.472Z,61.97
2018-09-25T17:31:30.458Z,63.21
2018-09-25T17:34:04.672Z,63.30
2018-09-25T17:36:38.703Z,64.35
2018-09-25T17:39:14.461Z,65.20
2018-09-25T17:41:48.693Z,66.00
2018-09-25T17:44:22.621Z,65.89
2018-09-25T17:46:56.732Z,66.55
2018-09-25T17:49:30.970Z,67.29
2018-09-25T17:52:05.109Z,68.48
2018-09-25T17:54:39.184Z,68.53
2018-09-25T17:57:13.256Z,69.06
2018-09-25T17:59:47.237Z,69.41
2018-09-25T18:02:21.313Z,70.24
2018-09-25T18:04:55.329Z,70.53
2018-09-25T18:07:29.223Z,71.83
2018-09-25T18:10:03.161Z,71.90
2018-09-25T18:12:37.072Z,72.35
2018-09-25T18:15:11.191Z,72.92
2018-09-25T18:17:46.067Z,73.64
2018-09-25T18:20:20.228Z,73.76
2018-09-25T18:22:54.206Z,74.60
2018-09-25T18:25:28.192Z,74.88
2018-09-25T18:28:02.549Z,75.31
2018-09-25T18:30:36.748Z,75.57
2018-09-25T18:33:12.176Z,75.56
2018-09-25T18:35:46.402Z,76.74
2018-09-25T18:38:20.604Z,76.67
2018-09-25T18:40:55.045Z,76.81
2018-09-25T18:43:29.459Z,77.08
2018-09-25T18:46:03.599Z,77.21
2018-09-25T18:48:37.871Z,78.09
2018-09-25T18:51:12.205Z,78.03
2018-09-25T18:53:47.620Z,79.27
2018-09-25T18:56:22.099Z,78.76
2018-09-25T18:58:56.587Z,79.66
2018-09-25T19:01:30.881Z,79.49
2018-09-25T19:04:05.281Z,79.57
2018-09-25T19:06:39.657Z,79.39
2018-09-25T19:09:15.377Z,80.58
2018-09-25T19:11:49.657Z,80.20
2018-09-25T19:14:23.892Z,80.39
2018-09-25T19:16:58.160Z,80.21
2018-09-25T19:19:32.537Z,81.11
2018-09-25T19:22:06.783Z,81.27
2018-09-25T19:24:41.097Z,81.07
2018-09-25T19:27:15.276Z,81.54
2018-09-25T19:29:49.724Z,81.85
2018-09-25T19:32:24.193Z,82.15
2018-09-25T19:34:58.417Z,82.16
2018-09-25T19:37:32.940Z,82.58
2018-09-25T19:40:07.357Z,82.79
2018-09-25T19:42:41.579Z,83.60
2018-09-25T19:45:15.825Z,84.02
2018-09-25T19:47:50.244Z,83.66
2018-09-25T19:50:24.437Z,83.05
2018-09-25T19:52:58.813Z,83.54
2018-09-25T19:55:34.161Z,83.68
2018-09-25T19:58:08.548Z,84.23
2018-09-25T20:00:43.037Z,84.39
2018-09-25T20:03:17.440Z,84.27
2018-09-25T20:05:51.595Z,84.19
2018-09-25T20:08:25.980Z,84.74
2018-09-25T20:11:00.385Z,84.62
2018-09-25T20:13:34.761Z,84.69
2018-09-25T20:16:09.080Z,85.49
2018-09-25T20:18:43.416Z,85.84
2018-09-25T20:21:17.577Z,85.99
2018-09-25T20:23:51.733Z,85.70
2018-09-25T20:26:26.083Z,86.23
2018-09-25T20:29:00.409Z,85.89
2018-09-25T20:31:34.680Z,86.26
2018-09-25T20:34:08.943Z,86.06
2018-09-25T20:36:43.315Z,85.96
2018-09-25T20:39:17.585Z,86.83
2018-09-25T20:41:51.879Z,86.59
2018-09-25T20:44:26.075Z,87.43
2018-09-25T20:47:00.215Z,87.59
2018-09-25T20:49:34.408Z,87.07
2018-09-25T20:52:08.613Z,87.56
2018-09-25T20:54:42.517Z,87.46
2018-09-25T20:57:16.525Z,87.65
2018-09-25T20:59:50.439Z,87.29
2018-09-25T21:02:24.553Z,87.30
2018-09-25T21:04:58.553Z,87.01
2018-09-25T21:07:32.580Z,88.11
2018-09-25T21:10:06.614Z,87.40
2018-09-25T21:12:40.533Z,88.17
2018-09-25T21:15:14.628Z,87.80
2018-09-25T21:17:48.517Z,87.72
2018-09-25T21:20:22.561Z,87.99
2018-09-25T21:22:56.568Z,88.36
2018-09-25T21:25:30.579Z,87.96
2018-09-25T21:28:04.561Z,87.88
2018-09-25T21:30:38.642Z,88.62
2018-09-25T21:33:12.552Z,88.94
2018-09-25T21:35:46.405Z,88.70
2018-09-25T21:38:20.577Z,88.91
2018-09-25T21:40:54.462Z,89.09
2018-09-25T21:43:28.447Z,88.30
2018-09-25T21:46:02.393Z,88.34
2018-09-25T21:48:36.485Z,88.98
2018-09-25T21:51:10.543Z,89.30
2018-09-25T21:53:44.536Z,88.41
2018-09-25T21:56:18.435Z,89.15
2018-09-25T21:58:52.457Z,89.13
2018-09-25T22:01:26.504Z,89.66
2018-09-25T22:04:00.560Z,89.13
2018-09-25T22:06:34.519Z,89.44
2018-09-25T22:09:08.671Z,89.73
2018-09-25T22:11:42.681Z,88.89
2018-09-25T22:14:16.811Z,89.74
2018-09-25T22:16:50.928Z,90.07
2018-09-25T22:19:24.862Z,89.16
2018-09-25T22:21:58.946Z,89.53
2018-09-25T22:24:32.861Z,89.25
2018-09-25T22:27:06.861Z,89.99
2018-09-25T22:29:40.896Z,89.94
2018-09-25T22:32:14.786Z,89.81
2018-09-25T22:34:48.812Z,89.43
2018-09-25T22:37:22.806Z,90.64
2018-09-25T22:39:56.759Z,89.60
2018-09-25T22:42:30.701Z,89.96
2018-09-25T22:45:04.704Z,89.75
2018-09-25T22:47:38.789Z,90.07
2018-09-25T22:50:12.908Z,89.82
2018-09-25T22:52:47.035Z,90.35
2018-09-25T22:55:20.952Z,90.67
2018-09-25T22:57:54.944Z,90.29
2018-09-25T23:00:29.088Z,90.35
2018-09-25T23:03:03.230Z,90.82
2018-09-25T23:05:37.275Z,90.16
2018-09-25T23:08:11.161Z,90.71
2018-09-25T23:10:45.294Z,91.21
2018-09-25T23:13:19.365Z,90.83
2018-09-25T23:15:53.305Z,91.30
2018-09-25T23:18:27.417Z,90.33
2018-09-25T23:21:01.346Z,90.33
2018-09-25T23:23:35.221Z,91.08
2018-09-25T23:26:09.134Z,90.43
2018-09-25T23:28:43.041Z,91.43
2018-09-25T23:31:16.961Z,90.98
2018-09-25T23:33:50.884Z,90.67
2018-09-25T23:36:25.005Z,91.36
2018-09-25T23:38:58.834Z,91.64
2018-09-25T23:41:37.779Z,91.13
2018-09-25T23:44:11.802Z,90.80
2018-09-25T23:46:44.879Z,91.22
2018-09-25T23:49:20.024Z,90.83
2018-09-25T23:51:52.153Z,90.87
2018-09-25T23:54:31.682Z,91.83
2018-09-25T23:57:06.329Z,91.45
2018-09-25T23:59:56.133Z,92.10
